sensor_id;sensor_type;location;lat;lon;timestamp;P1;durP1;ratioP1;P2;durP2;ratioP2
80172;SDS011;69497;41.708;44.804;2023-05-10T17:20:58;8.95;;;5.13;;
80172;SDS011;69497;41.708;44.804;2023-05-10T17:23:24;7.68;;;5.10;;
80172;SDS011;69497;41.708;44.804;2023-05-10T17:25:50;9.50;;;5.00;;
80172;SDS011;69497;41.708;44.804;2023-05-10T17:28:16;7.80;;;5.20;;
80172;SDS011;69497;41.708;44.804;2023-05-10T17:30:42;8.18;;;4.90;;
80172;SDS011;69497;41.708;44.804;2023-05-10T17:33:08;9.05;;;4.65;;
80172;SDS011;69497;41.708;44.804;2023-05-10T17:35:34;8.98;;;4.63;;
80172;SDS011;69497;41.708;44.804;2023-05-10T17:38:00;6.80;;;4.60;;
80172;SDS011;69497;41.708;44.804;2023-05-10T17:40:27;6.25;;;4.20;;
80172;SDS011;69497;41.708;44.804;2023-05-10T17:42:53;7.72;;;4.20;;
80172;SDS011;69497;41.708;44.804;2023-05-10T17:45:19;7.38;;;3.83;;
80172;SDS011;69497;41.708;44.804;2023-05-10T17:47:45;7.30;;;4.20;;
80172;SDS011;69497;41.708;44.804;2023-05-10T17:50:12;8.82;;;4.78;;
80172;SDS011;69497;41.708;44.804;2023-05-10T17:52:38;8.00;;;5.15;;
80172;SDS011;69497;41.708;44.804;2023-05-10T17:55:04;6.90;;;4.40;;
80172;SDS011;69497;41.708;44.804;2023-05-10T17:57:30;8.55;;;4.60;;
80172;SDS011;69497;41.708;44.804;2023-05-10T17:59:56;7.75;;;4.80;;
80172;SDS011;69497;41.708;44.804;2023-05-10T18:02:22;6.38;;;4.45;;
80172;SDS011;69497;41.708;44.804;2023-05-10T18:04:48;7.03;;;4.03;;
80172;SDS011;69497;41.708;44.804;2023-05-10T18:07:14;9.43;;;5.05;;
80172;SDS011;69497;41.708;44.804;2023-05-10T18:09:40;5.97;;;4.15;;
80172;SDS011;69497;41.708;44.804;2023-05-10T18:12:06;8.52;;;3.67;;
80172;SDS011;69497;41.708;44.804;2023-05-10T18:14:32;5.43;;;3.60;;
80172;SDS011;69497;41.708;44.804;2023-05-10T18:16:58;7.32;;;3.05;;
80172;SDS011;69497;41.708;44.804;2023-05-10T18:19:25;4.00;;;3.03;;
80172;SDS011;69497;41.708;44.804;2023-05-10T18:21:51;4.30;;;2.97;;
80172;SDS011;69497;41.708;44.804;2023-05-10T18:24:17;6.18;;;2.83;;
80172;SDS011;69497;41.708;44.804;2023-05-10T18:26:45;5.07;;;2.85;;
80172;SDS011;69497;41.708;44.804;2023-05-10T18:29:12;7.43;;;4.28;;
80172;SDS011;69497;41.708;44.804;2023-05-10T18:31:38;7.30;;;3.60;;
80172;SDS011;69497;41.708;44.804;2023-05-10T18:34:06;8.18;;;3.83;;
80172;SDS011;69497;41.708;44.804;2023-05-10T18:36:32;9.13;;;3.35;;
80172;SDS011;69497;41.708;44.804;2023-05-10T18:38:59;11.32;;;4.63;;
80172;SDS011;69497;41.708;44.804;2023-05-10T18:41:25;19.15;;;5.03;;
80172;SDS011;69497;41.708;44.804;2023-05-10T18:43:51;10.40;;;4.15;;
80172;SDS011;69497;41.708;44.804;2023-05-10T18:46:17;9.30;;;4.63;;
80172;SDS011;69497;41.708;44.804;2023-05-10T18:48:43;12.60;;;4.32;;
80172;SDS011;69497;41.708;44.804;2023-05-10T18:51:10;12.52;;;5.13;;
80172;SDS011;69497;41.708;44.804;2023-05-10T18:53:37;10.93;;;5.18;;
80172;SDS011;69497;41.708;44.804;2023-05-10T18:56:04;16.20;;;5.55;;
80172;SDS011;69497;41.708;44.804;2023-05-10T18:58:31;12.95;;;5.30;;
80172;SDS011;69497;41.708;44.804;2023-05-10T19:01:00;12.95;;;5.30;;
80172;SDS011;69497;41.708;44.804;2023-05-10T19:03:27;10.07;;;4.57;;
80172;SDS011;69497;41.708;44.804;2023-05-10T19:05:53;7.90;;;4.38;;
80172;SDS011;69497;41.708;44.804;2023-05-10T19:08:19;7.53;;;3.67;;
80172;SDS011;69497;41.708;44.804;2023-05-10T19:10:45;7.72;;;4.07;;
80172;SDS011;69497;41.708;44.804;2023-05-10T19:13:11;6.88;;;3.63;;
80172;SDS011;69497;41.708;44.804;2023-05-10T19:15:39;7.55;;;4.20;;
80172;SDS011;69497;41.708;44.804;2023-05-10T19:18:06;7.53;;;3.88;;
80172;SDS011;69497;41.708;44.804;2023-05-10T19:20:32;7.93;;;5.15;;
80172;SDS011;69497;41.708;44.804;2023-05-10T19:22:58;11.35;;;6.88;;
80172;SDS011;69497;41.708;44.804;2023-05-10T19:25:24;10.25;;;5.25;;
80172;SDS011;69497;41.708;44.804;2023-05-10T19:27:54;9.98;;;5.53;;
80172;SDS011;69497;41.708;44.804;2023-05-10T19:30:24;10.38;;;6.43;;
80172;SDS011;69497;41.708;44.804;2023-05-10T19:32:50;9.55;;;4.72;;
80172;SDS011;69497;41.708;44.804;2023-05-10T19:35:16;8.68;;;5.20;;
80172;SDS011;69497;41.708;44.804;2023-05-10T19:37:42;7.65;;;3.95;;
80172;SDS011;69497;41.708;44.804;2023-05-10T19:40:13;8.82;;;4.10;;
80172;SDS011;69497;41.708;44.804;2023-05-10T19:42:42;6.45;;;4.18;;
80172;SDS011;69497;41.708;44.804;2023-05-10T19:45:09;6.00;;;3.70;;
80172;SDS011;69497;41.708;44.804;2023-05-10T19:47:35;10.35;;;4.40;;
80172;SDS011;69497;41.708;44.804;2023-05-10T19:50:01;9.48;;;4.25;;
80172;SDS011;69497;41.708;44.804;2023-05-10T19:52:28;9.50;;;4.60;;
80172;SDS011;69497;41.708;44.804;2023-05-10T19:54:54;8.68;;;5.47;;
80172;SDS011;69497;41.708;44.804;2023-05-10T19:57:20;7.97;;;4.68;;
80172;SDS011;69497;41.708;44.804;2023-05-10T19:59:46;7.18;;;3.97;;
80172;SDS011;69497;41.708;44.804;2023-05-10T20:02:13;7.25;;;4.80;;
80172;SDS011;69497;41.708;44.804;2023-05-10T20:04:38;7.25;;;4.50;;
80172;SDS011;69497;41.708;44.804;2023-05-10T20:07:04;9.63;;;4.63;;
80172;SDS011;69497;41.708;44.804;2023-05-10T20:09:30;4.82;;;3.28;;
80172;SDS011;69497;41.708;44.804;2023-05-10T20:11:56;5.75;;;3.28;;
80172;SDS011;69497;41.708;44.804;2023-05-10T20:14:23;6.75;;;3.85;;
80172;SDS011;69497;41.708;44.804;2023-05-10T20:16:49;8.48;;;3.60;;
80172;SDS011;69497;41.708;44.804;2023-05-10T20:19:15;5.07;;;3.28;;
80172;SDS011;69497;41.708;44.804;2023-05-10T20:21:41;8.07;;;3.13;;
80172;SDS011;69497;41.708;44.804;2023-05-10T20:24:10;4.38;;;2.90;;
80172;SDS011;69497;41.708;44.804;2023-05-10T20:26:36;3.88;;;2.67;;
80172;SDS011;69497;41.708;44.804;2023-05-10T20:29:02;5.43;;;2.85;;
80172;SDS011;69497;41.708;44.804;2023-05-10T20:31:28;4.03;;;2.10;;
80172;SDS011;69497;41.708;44.804;2023-05-10T20:33:54;4.35;;;2.42;;
80172;SDS011;69497;41.708;44.804;2023-05-10T20:36:20;4.85;;;3.53;;
80172;SDS011;69497;41.708;44.804;2023-05-10T20:38:46;4.60;;;2.67;;
80172;SDS011;69497;41.708;44.804;2023-05-10T20:41:12;3.90;;;1.90;;
80172;SDS011;69497;41.708;44.804;2023-05-10T20:43:38;3.22;;;1.90;;
80172;SDS011;69497;41.708;44.804;2023-05-10T20:46:04;3.30;;;1.60;;
80172;SDS011;69497;41.708;44.804;2023-05-10T20:48:31;2.97;;;1.80;;
80172;SDS011;69497;41.708;44.804;2023-05-10T20:50:57;4.65;;;2.00;;
80172;SDS011;69497;41.708;44.804;2023-05-10T20:53:23;4.03;;;1.90;;
80172;SDS011;69497;41.708;44.804;2023-05-10T20:55:49;3.88;;;2.10;;
80172;SDS011;69497;41.708;44.804;2023-05-10T20:58:15;2.70;;;1.48;;
80172;SDS011;69497;41.708;44.804;2023-05-10T21:00:41;3.45;;;1.85;;
80172;SDS011;69497;41.708;44.804;2023-05-10T21:03:09;4.32;;;1.75;;
80172;SDS011;69497;41.708;44.804;2023-05-10T21:05:35;2.70;;;1.63;;
80172;SDS011;69497;41.708;44.804;2023-05-10T21:08:01;3.20;;;1.70;;
80172;SDS011;69497;41.708;44.804;2023-05-10T21:10:27;3.90;;;2.35;;
80172;SDS011;69497;41.708;44.804;2023-05-10T21:12:54;3.97;;;2.50;;
80172;SDS011;69497;41.708;44.804;2023-05-10T21:15:20;3.28;;;1.88;;
80172;SDS011;69497;41.708;44.804;2023-05-10T21:17:52;4.68;;;2.45;;
80172;SDS011;69497;41.708;44.804;2023-05-10T21:20:19;4.95;;;2.20;;
80172;SDS011;69497;41.708;44.804;2023-05-10T21:22:44;5.25;;;2.17;;
80172;SDS011;69497;41.708;44.804;2023-05-10T21:25:11;3.33;;;1.75;;
80172;SDS011;69497;41.708;44.804;2023-05-10T21:27:37;4.93;;;1.60;;
80172;SDS011;69497;41.708;44.804;2023-05-10T21:30:03;4.32;;;2.33;;
80172;SDS011;69497;41.708;44.804;2023-05-10T21:32:30;5.97;;;2.78;;
80172;SDS011;69497;41.708;44.804;2023-05-10T21:34:56;4.72;;;2.50;;
80172;SDS011;69497;41.708;44.804;2023-05-10T21:37:22;4.43;;;1.80;;
80172;SDS011;69497;41.708;44.804;2023-05-10T21:39:48;3.13;;;1.98;;
80172;SDS011;69497;41.708;44.804;2023-05-10T21:42:14;2.88;;;1.65;;
80172;SDS011;69497;41.708;44.804;2023-05-10T21:44:40;2.90;;;1.77;;
80172;SDS011;69497;41.708;44.804;2023-05-10T21:47:06;3.58;;;2.28;;
80172;SDS011;69497;41.708;44.804;2023-05-10T21:49:32;2.90;;;1.55;;
80172;SDS011;69497;41.708;44.804;2023-05-10T21:51:58;2.67;;;1.65;;
80172;SDS011;69497;41.708;44.804;2023-05-10T21:54:24;2.85;;;1.80;;
80172;SDS011;69497;41.708;44.804;2023-05-10T21:56:50;3.33;;;1.70;;
80172;SDS011;69497;41.708;44.804;2023-05-10T21:59:16;3.10;;;1.55;;
80172;SDS011;69497;41.708;44.804;2023-05-10T22:01:42;3.42;;;1.83;;
80172;SDS011;69497;41.708;44.804;2023-05-10T22:04:08;4.43;;;1.90;;
80172;SDS011;69497;41.708;44.804;2023-05-10T22:06:34;4.03;;;1.50;;
80172;SDS011;69497;41.708;44.804;2023-05-10T22:09:01;3.63;;;1.35;;
80172;SDS011;69497;41.708;44.804;2023-05-10T22:11:27;2.45;;;1.23;;
80172;SDS011;69497;41.708;44.804;2023-05-10T22:13:53;2.97;;;1.70;;
80172;SDS011;69497;41.708;44.804;2023-05-10T22:16:19;2.72;;;1.20;;
80172;SDS011;69497;41.708;44.804;2023-05-10T22:18:45;3.03;;;1.05;;
80172;SDS011;69497;41.708;44.804;2023-05-10T22:21:11;2.60;;;1.00;;
80172;SDS011;69497;41.708;44.804;2023-05-10T22:23:37;3.83;;;1.65;;
80172;SDS011;69497;41.708;44.804;2023-05-10T22:26:03;2.00;;;1.17;;
80172;SDS011;69497;41.708;44.804;2023-05-10T22:28:29;4.40;;;1.17;;
80172;SDS011;69497;41.708;44.804;2023-05-10T22:30:55;3.28;;;1.40;;
80172;SDS011;69497;41.708;44.804;2023-05-10T22:33:21;4.60;;;1.50;;
80172;SDS011;69497;41.708;44.804;2023-05-10T22:35:47;1.45;;;0.88;;
80172;SDS011;69497;41.708;44.804;2023-05-10T22:38:13;2.50;;;1.10;;
80172;SDS011;69497;41.708;44.804;2023-05-10T22:40:39;1.17;;;0.70;;
80172;SDS011;69497;41.708;44.804;2023-05-10T22:43:06;2.85;;;1.10;;
80172;SDS011;69497;41.708;44.804;2023-05-10T22:45:31;3.22;;;1.35;;
80172;SDS011;69497;41.708;44.804;2023-05-10T22:47:58;2.20;;;1.25;;
80172;SDS011;69497;41.708;44.804;2023-05-10T22:50:24;1.98;;;1.08;;
80172;SDS011;69497;41.708;44.804;2023-05-10T22:52:50;5.20;;;1.20;;
80172;SDS011;69497;41.708;44.804;2023-05-10T22:55:16;1.70;;;1.10;;
80172;SDS011;69497;41.708;44.804;2023-05-10T22:57:42;2.55;;;1.02;;
80172;SDS011;69497;41.708;44.804;2023-05-10T23:00:08;1.63;;;0.90;;
80172;SDS011;69497;41.708;44.804;2023-05-10T23:02:35;1.17;;;0.73;;
80172;SDS011;69497;41.708;44.804;2023-05-10T23:05:01;1.42;;;0.70;;
80172;SDS011;69497;41.708;44.804;2023-05-10T23:07:29;1.63;;;0.80;;
80172;SDS011;69497;41.708;44.804;2023-05-10T23:09:55;2.45;;;1.10;;
80172;SDS011;69497;41.708;44.804;2023-05-10T23:12:21;1.95;;;0.95;;
80172;SDS011;69497;41.708;44.804;2023-05-10T23:14:47;3.55;;;1.58;;
80172;SDS011;69497;41.708;44.804;2023-05-10T23:17:13;1.85;;;1.10;;
80172;SDS011;69497;41.708;44.804;2023-05-10T23:19:39;3.55;;;1.00;;
80172;SDS011;69497;41.708;44.804;2023-05-10T23:22:05;3.33;;;1.02;;
80172;SDS011;69497;41.708;44.804;2023-05-10T23:24:32;3.85;;;0.98;;
80172;SDS011;69497;41.708;44.804;2023-05-10T23:26:58;2.15;;;1.08;;
80172;SDS011;69497;41.708;44.804;2023-05-10T23:29:24;1.23;;;0.75;;
80172;SDS011;69497;41.708;44.804;2023-05-10T23:31:50;3.35;;;1.08;;
80172;SDS011;69497;41.708;44.804;2023-05-10T23:34:16;3.17;;;0.77;;
80172;SDS011;69497;41.708;44.804;2023-05-10T23:36:42;2.90;;;0.90;;
80172;SDS011;69497;41.708;44.804;2023-05-10T23:39:08;2.00;;;0.70;;
80172;SDS011;69497;41.708;44.804;2023-05-10T23:41:34;3.08;;;0.77;;
80172;SDS011;69497;41.708;44.804;2023-05-10T23:44:00;1.88;;;0.80;;
80172;SDS011;69497;41.708;44.804;2023-05-10T23:46:29;1.35;;;0.77;;
80172;SDS011;69497;41.708;44.804;2023-05-10T23:48:55;1.92;;;0.88;;
80172;SDS011;69497;41.708;44.804;2023-05-10T23:51:21;5.72;;;1.20;;
80172;SDS011;69497;41.708;44.804;2023-05-10T23:53:47;2.65;;;0.80;;
80172;SDS011;69497;41.708;44.804;2023-05-10T23:56:13;2.65;;;0.80;;
80172;SDS011;69497;41.708;44.804;2023-05-10T23:58:39;1.25;;;0.70;;
